Terminal Aerodrome Forecast
Issued by NWS

Home | Current Version | Previous Version | Text Only | Print | Product List | Glossary On
Versions: 1 2 3 4 5 6 7 8 9 10 11 12 13 14
006
FTUS41 KLWX 191130
TAFMTN
TAF
KMTN 191130Z 1912/2012 28006KT P6SM BKN070
     FM191600 30008KT P6SM SCT110
     FM200800 34006KT P6SM FEW200=

USA.gov is the U.S. government's official web portal to all federal, state and local government web resources and services.